Time;durP1;ratioP1;P1;durP2;ratioP2;P2;SDS_P1;SDS_P2;PMS_P1;PMS_P2;Temp;Humidity;BMP_temperature;BMP_pressure;BME280_temperature;BME280_humidity;BME280_pressure;Samples;Min_cycle;Max_cycle;Signal;HPM_P1;HPM_P2
2021/12/12 00:01:09;;;;;;;123.00;80.20;;;;;;;-0.51;77.12;101151.34;108410;1281;23866;-76
2021/12/12 00:03:52;;;;;;;119.60;81.40;;;;;;;-0.58;77.16;101145.30;108474;1281;22047;-75
2021/12/12 00:06:42;;;;;;;119.90;78.60;;;;;;;-0.59;77.38;101145.02;108412;1281;22569;-76
2021/12/12 00:09:28;;;;;;;115.10;76.10;;;;;;;-0.59;77.46;101144.84;108693;1280;21983;-76
2021/12/12 00:12:25;;;;;;;108.70;73.20;;;;;;;-0.60;77.51;101146.42;108450;1281;22459;-76
2021/12/12 00:14:59;;;;;;;107.80;72.70;;;;;;;-0.61;77.46;101144.42;108469;1281;22056;-76
2021/12/12 00:17:34;;;;;;;99.90;68.70;;;;;;;-0.63;77.51;101144.68;108718;1278;22000;-76
2021/12/12 00:20:06;;;;;;;92.30;63.60;;;;;;;-0.64;77.47;101141.11;108802;1276;23042;-76
2021/12/12 00:22:49;;;;;;;97.60;62.40;;;;;;;-0.71;77.24;101143.16;108776;1277;22012;-76
2021/12/12 00:25:33;;;;;;;93.20;61.70;;;;;;;-0.78;77.33;101144.58;108742;1277;21973;-76
2021/12/12 00:28:09;;;;;;;89.60;60.60;;;;;;;-0.85;77.30;101137.81;108708;1277;22032;-75
2021/12/12 00:30:44;;;;;;;88.80;60.40;;;;;;;-0.93;77.37;101137.70;108795;1277;22036;-76
2021/12/12 00:33:20;;;;;;;83.30;55.60;;;;;;;-0.97;77.52;101132.03;108703;1281;22456;-75
2021/12/12 00:36:02;;;;;;;85.80;55.50;;;;;;;-1.03;77.44;101130.73;108630;1281;22091;-76
2021/12/12 00:38:51;;;;;;;89.80;59.60;;;;;;;-1.07;77.63;101131.27;108698;1280;22430;-77
2021/12/12 00:42:03;;;;;;;92.50;60.60;;;;;;;-1.08;77.76;101133.06;108290;1285;23817;-76
2021/12/12 00:45:00;;;;;;;86.80;57.70;;;;;;;-1.10;77.82;101136.82;107857;1292;22017;-76
2021/12/12 00:47:33;;;;;;;83.60;55.80;;;;;;;-1.13;77.79;101136.79;107877;1292;22002;-76
2021/12/12 00:50:42;;;;;;;;;;;;;;;;;;;;;
2021/12/12 00:53:25;;;;;;;91.50;58.60;;;;;;;-1.23;77.73;101144.15;107911;1292;22022;-76
2021/12/12 00:55:59;;;;;;;90.80;61.00;;;;;;;-1.28;77.65;101143.88;107686;1294;22473;-76
2021/12/12 00:59:03;;;;;;;92.30;58.00;;;;;;;-1.34;77.92;101147.60;107944;1288;23148;-76
2021/12/12 01:01:51;;;;;;;88.10;56.60;;;;;;;-1.38;77.97;101146.93;108372;1284;21995;-75
2021/12/12 01:04:37;;;;;;;91.40;60.00;;;;;;;-1.40;78.03;101143.42;108394;1285;23766;-76
2021/12/12 01:07:13;;;;;;;90.10;58.40;;;;;;;-1.40;78.18;101141.16;108298;1287;22766;-76
2021/12/12 01:09:53;;;;;;;86.40;57.10;;;;;;;-1.39;78.17;101145.27;108178;1287;23100;-77
2021/12/12 01:12:33;;;;;;;94.00;56.80;;;;;;;-1.41;78.20;101139.48;108039;1288;22001;-76
2021/12/12 01:15:28;;;;;;;87.00;56.60;;;;;;;-1.47;78.06;101136.80;108271;1287;22038;-76
2021/12/12 01:18:16;;;;;;;88.30;57.60;;;;;;;-1.51;78.21;101145.44;107846;1288;299533;-77
2021/12/12 01:21:27;;;;;;;86.40;55.70;;;;;;;-1.55;78.28;101145.45;108089;1281;22903;-77
2021/12/12 01:24:39;;;;;;;87.50;56.50;;;;;;;-1.56;78.43;101154.19;108646;1275;21990;-76
2021/12/12 01:27:41;;;;;;;89.90;56.10;;;;;;;-1.54;78.61;101157.02;108778;1277;23666;-76
2021/12/12 01:30:28;;;;;;;;;;;;;;;-1.56;78.52;101152.42;108951;1275;22082;-77
2021/12/12 01:33:09;;;;;;;90.40;56.70;;;;;;;-1.63;78.52;101154.67;108431;1284;23725;-75
2021/12/12 01:35:43;;;;;;;89.00;56.70;;;;;;;-1.66;78.56;101158.41;108277;1284;23622;-77
2021/12/12 01:41:16;;;;;;;92.90;57.20;;;;;;;-1.69;78.52;101167.04;108381;1284;22050;-77
2021/12/12 01:43:48;;;;;;;98.30;60.50;;;;;;;-1.72;78.41;101168.72;108426;1283;22775;-76
2021/12/12 01:46:34;;;;;;;88.00;56.80;;;;;;;-1.73;78.62;101164.94;108436;1284;23644;-76
2021/12/12 01:49:21;;;;;;;94.20;59.00;;;;;;;-1.73;78.64;101158.89;108358;1283;21991;-74
2021/12/12 01:51:52;;;;;;;94.20;58.40;;;;;;;-1.73;78.66;101163.76;108438;1281;23792;-76
2021/12/12 01:54:43;;;;;;;;;;;;;;;;;;;;;
2021/12/12 01:57:27;;;;;;;94.70;58.40;;;;;;;-1.77;78.59;101167.55;108491;1282;22045;-76
2021/12/12 02:00:24;;;;;;;97.00;62.00;;;;;;;-1.78;78.85;101166.20;108460;1282;23615;-77
2021/12/12 02:03:12;;;;;;;;;;;;;;;;;;;;;
2021/12/12 02:06:00;;;;;;;98.20;60.50;;;;;;;-1.76;78.91;101161.83;108040;1288;22093;-76
2021/12/12 02:08:37;;;;;;;90.10;55.90;;;;;;;-1.77;78.86;101163.59;108315;1287;22703;-76
2021/12/12 02:11:35;;;;;;;;;;;;;;;-1.80;78.76;101168.21;108510;1282;22504;-76
2021/12/12 02:14:52;;;;;;;93.80;56.00;;;;;;;-1.90;78.81;101171.26;108191;1282;23133;-76
2021/12/12 02:17:48;;;;;;;93.80;58.20;;;;;;;-1.92;78.89;101177.70;108381;1280;23032;-76
2021/12/12 02:20:52;;;;;;;;;;;;;;;;;;;;;
2021/12/12 02:23:37;;;;;;;103.50;60.00;;;;;;;-1.90;78.89;101167.95;108468;1281;23782;-76
2021/12/12 02:35:41;;;;;;;101.70;61.20;;;;;;;-1.96;79.06;101165.95;108636;1280;23004;-77
2021/12/12 02:38:40;;;;;;;96.90;59.30;;;;;;;-1.93;79.21;101155.31;108610;1280;21990;-77
2021/12/12 02:41:27;;;;;;;92.90;58.50;;;;;;;-1.94;79.12;101152.60;108555;1280;21984;-76
2021/12/12 02:44:05;;;;;;;90.20;58.20;;;;;;;-1.95;79.20;101156.25;108533;1280;22881;-76
2021/12/12 02:46:40;;;;;;;88.30;56.40;;;;;;;-1.96;79.11;101158.88;108298;1286;22111;-75
2021/12/12 02:49:53;;;;;;;82.30;53.00;;;;;;;-1.97;78.93;101164.98;108272;1286;21994;-76
2021/12/12 02:52:52;;;;;;;87.00;56.20;;;;;;;-2.04;78.76;101174.80;108113;1288;23713;-75
2021/12/12 02:55:56;;;;;;;84.80;53.50;;;;;;;-2.07;78.93;101179.77;108205;1287;23618;-75
2021/12/12 02:58:51;;;;;;;83.10;54.00;;;;;;;-2.06;79.18;101187.63;108061;1288;22615;-76
2021/12/12 03:02:02;;;;;;;78.80;50.00;;;;;;;-2.04;79.10;101191.55;108078;1288;22791;-76
2021/12/12 03:05:41;;;;;;;72.40;47.60;;;;;;;-2.12;78.96;101194.45;108235;1282;23760;-76
2021/12/12 03:08:56;;;;;;;81.60;53.50;;;;;;;-2.20;78.97;101209.82;108441;1281;22369;-76
2021/12/12 03:11:56;;;;;;;80.30;54.30;;;;;;;-2.20;79.08;101215.54;108411;1282;22616;-76
2021/12/12 03:14:48;;;;;;;;;;;;;;;;;;;;;
2021/12/12 03:17:43;;;;;;;74.70;48.30;;;;;;;-2.22;79.14;101223.71;108392;1282;22765;-77
2021/12/12 03:20:31;;;;;;;83.40;52.60;;;;;;;-2.21;79.24;101226.95;108376;1282;23617;-76
2021/12/12 03:23:38;;;;;;;78.80;51.90;;;;;;;-2.20;79.16;101217.59;108501;1277;23725;-75
2021/12/12 03:26:58;;;;;;;79.30;51.70;;;;;;;-2.17;79.31;101216.10;108763;1277;22451;-76
2021/12/12 03:30:00;;;;;;;;;;;;;;;;;;;;;
2021/12/12 03:33:02;;;;;;;;;;;;;;;;;;;;;
2021/12/12 03:35:54;;;;;;;85.30;53.90;;;;;;;-2.20;79.40;101225.00;108448;1282;21991;-77
2021/12/12 03:38:57;;;;;;;88.80;55.50;;;;;;;-2.17;79.39;101230.39;108500;1283;23145;-77
2021/12/12 03:41:58;;;;;;;;;;;;;;;;;;;;;
2021/12/12 03:45:12;;;;;;;88.10;55.10;;;;;;;-2.15;79.41;101243.95;108470;1283;22041;-79
2021/12/12 03:48:33;;;;;;;91.50;52.40;;;;;;;-2.10;79.46;101254.44;108285;1287;22033;-84
2021/12/12 03:51:19;;;;;;;82.40;54.60;;;;;;;-2.05;79.48;101257.52;108105;1288;22900;-76
2021/12/12 03:53:57;;;;;;;80.30;52.70;;;;;;;-2.02;79.43;101261.38;108171;1288;22050;-75
2021/12/12 03:56:49;;;;;;;78.40;51.50;;;;;;;-2.04;79.02;101266.98;108027;1288;22012;-76
2021/12/12 03:59:30;;;;;;;82.70;52.80;;;;;;;-2.04;79.12;101267.83;107987;1288;22045;-76
2021/12/12 04:02:02;;;;;;;;;;;;;;;-2.04;79.17;101273.17;107993;1288;22039;-76
2021/12/12 04:04:41;;;;;;;85.10;51.70;;;;;;;-2.09;79.20;101275.48;107938;1291;22078;-77
2021/12/12 04:07:21;;;;;;;84.90;53.10;;;;;;;-2.10;79.30;101273.42;108097;1287;22000;-76
2021/12/12 04:10:04;;;;;;;80.50;52.70;;;;;;;-2.08;79.18;101276.44;107737;1291;23716;-75
2021/12/12 04:12:36;;;;;;;88.70;57.50;;;;;;;-2.06;79.27;101277.59;107859;1286;22760;-76
2021/12/12 04:15:11;;;;;;;91.50;55.50;;;;;;;-2.06;79.21;101281.90;108388;1285;22214;-75
2021/12/12 04:17:44;;;;;;;76.90;50.40;;;;;;;-2.06;79.14;101283.44;108019;1288;23713;-75
2021/12/12 04:20:27;;;;;;;78.10;50.20;;;;;;;-2.09;79.03;101284.77;108214;1288;22017;-76
2021/12/12 04:23:06;;;;;;;83.30;51.40;;;;;;;-2.13;78.93;101287.68;108113;1286;23789;-76
2021/12/12 04:25:42;;;;;;;87.60;56.60;;;;;;;-2.13;78.95;101284.92;108352;1285;22090;-75
2021/12/12 04:28:16;;;;;;;90.10;58.00;;;;;;;-2.15;78.72;101287.08;108316;1281;22062;-76
2021/12/12 04:30:47;;;;;;;86.70;57.40;;;;;;;-2.19;78.69;101285.71;108499;1282;23008;-75
2021/12/12 04:33:23;;;;;;;80.00;52.80;;;;;;;-2.20;78.88;101285.42;108479;1281;23044;-75
2021/12/12 04:35:54;;;;;;;84.30;53.90;;;;;;;-2.20;79.05;101285.58;108503;1283;21999;-75
2021/12/12 04:38:40;;;;;;;82.90;53.50;;;;;;;-2.18;79.06;101287.40;108209;1288;22164;-75
2021/12/12 04:41:22;;;;;;;74.20;48.50;;;;;;;-2.15;79.12;101290.55;107833;1288;22028;-75
2021/12/12 04:43:56;;;;;;;77.60;51.90;;;;;;;-2.14;79.13;101294.11;108220;1286;23059;-75
2021/12/12 04:49:54;;;;;;;100.50;63.50;;;;;;;-2.13;79.02;101295.64;107873;1290;22057;-75
2021/12/12 04:52:40;;;;;;;71.80;48.40;;;;;;;-2.13;79.06;101305.16;107786;1294;22172;-76
2021/12/12 04:55:46;;;;;;;79.70;50.90;;;;;;;-2.13;79.06;101301.85;107023;1298;22011;-76
2021/12/12 04:59:13;;;;;;;;;;;;;;;;;;;;;
2021/12/12 05:02:28;;;;;;;82.70;51.30;;;;;;;-2.11;78.99;101311.77;107618;1295;22086;-75
2021/12/12 05:05:28;;;;;;;76.40;52.40;;;;;;;-2.14;78.99;101315.02;107743;1285;22025;-74
2021/12/12 05:08:41;;;;;;;84.10;55.30;;;;;;;-2.18;78.77;101307.94;108227;1288;22761;-74
2021/12/12 05:11:23;;;;;;;74.30;50.10;;;;;;;-2.15;79.12;101307.29;108236;1283;23582;-75
2021/12/12 05:14:09;;;;;;;81.80;55.80;;;;;;;-2.12;79.03;101306.33;108504;1277;23024;-75
2021/12/12 05:16:46;;;;;;;68.30;46.60;;;;;;;-2.13;78.92;101306.36;108827;1275;21985;-74
2021/12/12 05:19:26;;;;;;;59.40;43.30;;;;;;;-2.19;78.70;101305.20;108820;1275;21981;-76
2021/12/12 05:22:20;;;;;;;69.10;46.90;;;;;;;-2.18;78.88;101312.60;108951;1275;23705;-75
2021/12/12 05:25:04;;;;;;;72.90;48.50;;;;;;;-2.17;78.82;101305.61;108808;1275;23074;-75
2021/12/12 05:27:38;;;;;;;83.20;53.40;;;;;;;-2.15;78.96;101309.85;108975;1274;22036;-75
2021/12/12 05:30:26;;;;;;;83.90;56.00;;;;;;;-2.17;78.67;101308.41;108897;1275;22760;-75
2021/12/12 05:33:01;;;;;;;84.80;57.10;;;;;;;-2.15;78.89;101312.28;108764;1277;25006;-77
2021/12/12 05:35:39;;;;;;;89.30;59.30;;;;;;;-2.14;78.79;101319.34;108975;1275;22139;-76
2021/12/12 05:38:17;;;;;;;85.80;58.10;;;;;;;-2.20;78.50;101322.17;108961;1276;22059;-75
2021/12/12 05:41:01;;;;;;;89.40;58.60;;;;;;;-2.25;78.53;101327.39;108470;1282;21979;-75
2021/12/12 05:43:35;;;;;;;91.80;62.30;;;;;;;-2.31;78.41;101322.98;108227;1285;22018;-75
2021/12/12 05:46:18;;;;;;;104.80;67.40;;;;;;;-2.33;78.66;101321.48;108350;1285;22075;-75
2021/12/12 05:49:06;;;;;;;100.00;64.30;;;;;;;-2.32;78.79;101322.67;107969;1291;23716;-75
2021/12/12 05:51:41;;;;;;;105.60;65.90;;;;;;;-2.31;78.69;101323.49;107789;1291;22023;-74
2021/12/12 05:54:11;;;;;;;88.30;61.00;;;;;;;-2.36;78.63;101327.96;107931;1287;23072;-75
2021/12/12 05:56:49;;;;;;;95.80;63.90;;;;;;;-2.38;78.60;101326.02;107861;1290;22004;-76
2021/12/12 05:59:28;;;;;;;86.30;55.30;;;;;;;-2.48;78.33;101323.80;108083;1286;22004;-75
2021/12/12 06:02:06;;;;;;;95.50;59.80;;;;;;;-2.57;78.31;101328.44;108400;1281;23725;-74
2021/12/12 06:04:37;;;;;;;93.50;60.50;;;;;;;-2.60;78.56;101331.34;108064;1285;22130;-74
2021/12/12 06:07:18;;;;;;;93.00;62.90;;;;;;;-2.61;78.72;101341.36;108368;1281;22062;-76
2021/12/12 06:09:54;;;;;;;99.40;61.80;;;;;;;-2.55;79.07;101346.52;108419;1282;23075;-75
2021/12/12 06:12:26;;;;;;;102.40;63.60;;;;;;;-2.58;78.75;101345.75;108426;1282;22219;-75
2021/12/12 06:15:10;;;;;;;111.40;69.20;;;;;;;-2.55;79.10;101344.74;108402;1281;21992;-76
2021/12/12 06:17:43;;;;;;;;;;;;;;;-2.48;79.30;101346.21;108168;1286;23142;-74
2021/12/12 06:20:21;;;;;;;106.10;63.10;;;;;;;-2.52;79.28;101353.27;108229;1286;22179;-75
2021/12/12 06:22:54;;;;;;;112.90;70.10;;;;;;;-2.51;79.17;101348.95;108358;1281;22231;-75
2021/12/12 06:25:33;;;;;;;102.70;65.00;;;;;;;-2.50;79.10;101349.42;108595;1279;23006;-75
2021/12/12 06:28:09;;;;;;;116.50;72.60;;;;;;;-2.51;79.06;101350.13;108418;1280;22925;-75
2021/12/12 06:30:41;;;;;;;121.40;74.40;;;;;;;-2.49;79.20;101353.15;108626;1281;23673;-75
2021/12/12 06:33:12;;;;;;;116.20;70.10;;;;;;;-2.44;79.34;101359.70;108542;1282;23585;-75
2021/12/12 06:35:47;;;;;;;131.70;80.20;;;;;;;-2.50;78.67;101356.99;108442;1281;23614;-75
2021/12/12 06:38:24;;;;;;;123.50;74.90;;;;;;;-2.54;78.85;101364.59;108348;1283;22004;-75
2021/12/12 06:40:57;;;;;;;122.60;72.30;;;;;;;-2.58;78.73;101366.98;108515;1281;23993;-76
2021/12/12 06:43:36;;;;;;;118.50;70.50;;;;;;;-2.67;78.60;101363.32;108914;1275;23120;-76
2021/12/12 06:46:09;;;;;;;119.80;74.00;;;;;;;-2.64;79.10;101370.79;109006;1275;21973;-76
2021/12/12 06:48:49;;;;;;;108.10;68.40;;;;;;;-2.56;79.36;101375.69;108389;1281;22011;-76
2021/12/12 06:51:24;;;;;;;112.50;68.60;;;;;;;-2.50;79.21;101376.67;108389;1282;22084;-78
2021/12/12 06:54:05;;;;;;;99.40;62.20;;;;;;;-2.55;78.77;101381.89;108329;1287;23595;-76
2021/12/12 06:56:37;;;;;;;96.70;62.00;;;;;;;-2.69;78.47;101379.81;107914;1291;22329;-75
2021/12/12 06:59:12;;;;;;;100.40;58.10;;;;;;;-2.83;78.48;101382.73;107884;1291;22460;-75
2021/12/12 07:01:51;;;;;;;109.50;68.80;;;;;;;-2.91;78.62;101385.77;107742;1291;23065;-77
2021/12/12 07:04:29;;;;;;;111.80;67.60;;;;;;;-2.90;79.00;101386.63;107268;1297;22076;-75
2021/12/12 07:07:04;;;;;;;115.50;68.40;;;;;;;-2.84;79.37;101386.55;107450;1294;22001;-76
2021/12/12 07:09:41;;;;;;;114.20;65.90;;;;;;;-2.78;79.20;101385.29;107705;1288;21982;-73
2021/12/12 07:12:39;;;;;;;108.60;65.30;;;;;;;-2.76;79.26;101380.42;108147;1287;22064;-74
2021/12/12 07:15:18;;;;;;;92.50;56.40;;;;;;;-2.80;79.25;101382.30;108240;1282;22001;-76
2021/12/12 07:18:07;;;;;;;97.00;60.50;;;;;;;-2.89;78.79;101379.67;108355;1282;21989;-74
2021/12/12 07:21:25;;;;;;;116.90;69.60;;;;;;;-2.98;78.98;101386.76;108587;1281;22031;-75
2021/12/12 07:24:31;;;;;;;101.40;58.50;;;;;;;-2.97;79.36;101394.96;108626;1279;23106;-75
2021/12/12 07:27:31;;;;;;;106.00;62.70;;;;;;;-2.92;79.58;101402.02;108346;1285;23698;-75
2021/12/12 07:30:12;;;;;;;88.40;55.40;;;;;;;-2.87;79.49;101407.88;108176;1288;22000;-74
2021/12/12 07:32:52;;;;;;;107.40;63.60;;;;;;;-2.93;79.14;101408.09;108015;1288;22103;-75
2021/12/12 07:35:46;;;;;;;109.60;67.40;;;;;;;-2.92;79.41;101408.77;108130;1287;22755;-75
2021/12/12 07:38:24;;;;;;;90.90;55.80;;;;;;;-2.86;79.72;101411.80;108022;1288;22134;-74
2021/12/12 07:40:54;;;;;;;89.70;57.80;;;;;;;-2.86;79.56;101409.90;108164;1283;23138;-73
2021/12/12 07:43:25;;;;;;;97.20;61.70;;;;;;;-2.88;79.47;101414.98;108201;1288;22039;-74
2021/12/12 07:46:04;;;;;;;95.10;62.90;;;;;;;-2.83;79.77;101413.60;108322;1281;23081;-74
2021/12/12 07:48:39;;;;;;;93.50;58.00;;;;;;;-2.78;79.75;101414.79;108411;1282;24121;-74
2021/12/12 07:51:16;;;;;;;97.70;64.90;;;;;;;-2.77;79.51;101418.20;108284;1284;22001;-75
2021/12/12 07:53:52;;;;;;;92.40;61.50;;;;;;;-2.78;79.43;101416.16;108208;1284;22003;-76
2021/12/12 07:56:45;;;;;;;99.10;67.60;;;;;;;-2.72;79.82;101406.48;108423;1282;23127;-77
2021/12/12 07:59:17;;;;;;;88.40;59.30;;;;;;;-2.69;79.71;101399.95;108451;1281;22925;-76
2021/12/12 08:01:52;;;;;;;94.50;62.60;;;;;;;-2.67;79.76;101405.59;108567;1281;22760;-77
2021/12/12 08:04:28;;;;;;;106.10;67.40;;;;;;;-2.65;79.61;101405.67;108230;1287;22005;-76
2021/12/12 08:07:22;;;;;;;99.80;63.80;;;;;;;-2.59;79.77;101412.71;108104;1286;23783;-76
2021/12/12 08:09:52;;;;;;;94.20;62.10;;;;;;;-2.61;79.26;101418.48;108248;1282;23605;-76
2021/12/12 08:12:29;;;;;;;101.70;63.20;;;;;;;-2.68;79.26;101424.95;108261;1282;23757;-77
2021/12/12 08:15:08;;;;;;;87.50;54.40;;;;;;;-2.72;79.38;101431.98;108294;1288;22442;-76
2021/12/12 08:17:39;;;;;;;81.00;52.50;;;;;;;-2.77;79.36;101437.67;108306;1283;22019;-77
2021/12/12 08:20:13;;;;;;;74.70;51.80;;;;;;;-2.77;79.29;101440.27;108410;1283;24476;-77
2021/12/12 08:22:47;;;;;;;73.90;49.00;;;;;;;-2.75;79.48;101449.85;108459;1280;22021;-77
2021/12/12 08:25:21;;;;;;;80.60;52.50;;;;;;;-2.65;79.85;101454.16;108008;1287;23752;-76
2021/12/12 08:28:02;;;;;;;99.90;72.80;;;;;;;-2.59;79.82;101451.85;108345;1288;23787;-77
2021/12/12 08:30:37;;;;;;;90.30;63.10;;;;;;;-2.51;79.95;101451.73;108140;1288;21988;-76
2021/12/12 08:33:08;;;;;;;85.10;57.80;;;;;;;-2.49;79.52;101452.00;108002;1288;23707;-75
2021/12/12 08:35:39;;;;;;;87.00;58.00;;;;;;;-2.49;79.57;101451.81;107979;1287;24508;-77
2021/12/12 08:38:13;;;;;;;86.70;57.90;;;;;;;-2.40;79.80;101457.02;107943;1291;23046;-77
2021/12/12 08:40:52;;;;;;;95.40;65.00;;;;;;;-2.33;79.86;101461.40;107587;1294;22007;-77
2021/12/12 08:43:31;;;;;;;109.60;73.20;;;;;;;-2.25;79.85;101459.90;107881;1288;23701;-76
2021/12/12 08:46:11;;;;;;;93.10;60.20;;;;;;;-2.17;79.91;101463.21;108078;1288;22019;-77
2021/12/12 08:48:50;;;;;;;95.80;65.40;;;;;;;-2.13;79.57;101466.00;108034;1288;22009;-76
2021/12/12 08:51:35;;;;;;;109.30;72.90;;;;;;;-2.07;79.75;101463.83;108149;1287;23078;-77
2021/12/12 08:54:22;;;;;;;89.50;62.30;;;;;;;-2.04;79.44;101461.17;108237;1285;21992;-77
2021/12/12 08:57:03;;;;;;;107.20;68.10;;;;;;;-2.01;79.32;101457.76;108284;1281;22027;-77
2021/12/12 08:59:53;;;;;;;115.30;74.10;;;;;;;-2.04;78.98;101458.55;108899;1273;22219;-77
2021/12/12 09:02:26;;;;;;;114.40;72.60;;;;;;;-2.03;79.24;101461.97;108886;1274;23579;-77
2021/12/12 09:05:08;;;;;;;111.70;72.70;;;;;;;-1.96;79.27;101456.36;108847;1274;21974;-77
2021/12/12 09:07:51;;;;;;;115.40;76.00;;;;;;;-1.91;79.32;101448.02;108887;1274;22044;-77
2021/12/12 09:10:38;;;;;;;111.90;72.80;;;;;;;-1.81;79.40;101447.65;108908;1274;21983;-77
2021/12/12 09:13:33;;;;;;;107.90;71.30;;;;;;;-1.72;79.42;101443.80;109028;1274;22029;-76
2021/12/12 09:16:18;;;;;;;93.10;59.60;;;;;;;-1.61;79.59;101437.84;108994;1274;23650;-76
2021/12/12 09:19:06;;;;;;;97.20;61.30;;;;;;;-1.52;79.51;101440.23;108685;1275;274604;-76
2021/12/12 09:21:51;;;;;;;106.90;70.90;;;;;;;-1.48;79.02;101440.40;108804;1275;21986;-77
2021/12/12 09:25:31;;;;;;;112.90;73.20;;;;;;;-1.51;78.58;101443.63;108961;1275;21993;-76
2021/12/12 09:28:24;;;;;;;99.50;67.10;;;;;;;-1.56;78.41;101437.83;108618;1282;21983;-77
2021/12/12 09:31:33;;;;;;;108.60;67.40;;;;;;;-1.57;78.43;101433.01;108388;1282;23746;-77
2021/12/12 09:34:10;;;;;;;117.00;76.80;;;;;;;-1.47;78.85;101431.23;108248;1284;22099;-77
2021/12/12 09:37:27;;;;;;;120.60;75.90;;;;;;;-1.42;78.59;101430.66;108181;1285;23601;-75
2021/12/12 09:40:20;;;;;;;89.60;59.40;;;;;;;-1.51;77.91;101434.31;108110;1287;23612;-77
2021/12/12 09:43:16;;;;;;;94.00;63.30;;;;;;;-1.50;78.25;101431.00;108219;1287;21995;-77
2021/12/12 09:46:45;;;;;;;116.10;76.60;;;;;;;-1.48;78.30;101428.86;108227;1287;22702;-77
2021/12/12 09:53:25;;;;;;;109.90;67.90;;;;;;;-1.37;78.51;101419.21;108323;1282;23058;-77
2021/12/12 09:56:17;;;;;;;99.40;65.40;;;;;;;-1.32;78.43;101417.27;108157;1287;23347;-76
2021/12/12 09:59:31;;;;;;;130.30;80.40;;;;;;;-1.26;78.53;101416.33;107984;1291;22007;-76
2021/12/12 10:02:34;;;;;;;137.00;85.40;;;;;;;-1.27;77.88;101411.89;107968;1291;23625;-78
2021/12/12 10:05:33;;;;;;;127.90;83.30;;;;;;;-1.23;78.46;101406.67;108618;1280;21983;-76
2021/12/12 10:08:50;;;;;;;111.10;72.10;;;;;;;-1.14;78.36;101403.19;108302;1287;22030;-77
2021/12/12 10:11:43;;;;;;;107.50;74.50;;;;;;;-1.04;78.54;101405.20;108256;1287;22000;-77
2021/12/12 10:14:52;;;;;;;126.50;80.70;;;;;;;-0.98;78.23;101407.86;108130;1287;22070;-76
2021/12/12 10:18:18;;;;;;;125.00;85.30;;;;;;;-0.99;77.91;101400.98;108369;1285;23052;-77
2021/12/12 10:21:04;;;;;;;136.10;89.50;;;;;;;-1.01;77.87;101408.15;108205;1288;21999;-77
2021/12/12 10:24:11;;;;;;;119.60;83.50;;;;;;;-0.99;77.93;101409.45;108209;1285;23691;-76
2021/12/12 10:27:14;;;;;;;124.30;79.50;;;;;;;-0.94;78.01;101405.44;107896;1290;23721;-74
2021/12/12 10:30:16;;;;;;;134.80;91.70;;;;;;;-0.93;77.88;101405.90;107793;1291;22160;-77
2021/12/12 10:32:55;;;;;;;129.70;87.40;;;;;;;-0.87;78.06;101402.86;107913;1291;23059;-76
2021/12/12 10:35:40;;;;;;;134.20;86.10;;;;;;;-0.78;78.25;101399.16;107961;1287;23194;-76
2021/12/12 10:38:45;;;;;;;124.50;79.20;;;;;;;-0.70;78.08;101406.59;108057;1282;21983;-76
2021/12/12 10:41:36;;;;;;;115.90;74.20;;;;;;;-0.68;77.72;101403.21;108440;1281;23623;-77
2021/12/12 10:44:54;;;;;;;93.20;59.30;;;;;;;-0.63;77.73;101401.11;108394;1284;22045;-75
2021/12/12 10:48:04;;;;;;;91.40;60.10;;;;;;;-0.58;77.80;101397.23;108372;1284;21983;-76
2021/12/12 10:50:54;;;;;;;103.20;70.30;;;;;;;-0.51;77.98;101388.73;108431;1285;22198;-77
2021/12/12 10:53:59;;;;;;;106.70;73.10;;;;;;;-0.41;77.90;101387.27;108226;1286;23631;-77
2021/12/12 10:56:50;;;;;;;104.70;71.70;;;;;;;-0.38;77.31;101382.83;108229;1288;22017;-76
2021/12/12 10:59:41;;;;;;;106.80;74.20;;;;;;;-0.38;77.20;101384.04;108195;1281;22042;-76
2021/12/12 11:02:45;;;;;;;119.50;79.20;;;;;;;-0.40;76.90;101387.37;108224;1286;21985;-77
2021/12/12 11:05:44;;;;;;;102.50;72.60;;;;;;;-0.34;77.09;101392.48;108399;1285;23576;-76
2021/12/12 11:09:13;;;;;;;;;;;;;;;;;;;;;
2021/12/12 11:12:09;;;;;;;101.40;73.10;;;;;;;-0.33;76.87;101384.83;108219;1290;22492;-80
2021/12/12 11:15:22;;;;;;;95.50;68.90;;;;;;;-0.22;77.38;101382.91;108019;1291;22076;-80
2021/12/12 11:18:51;;;;;;;121.40;87.40;;;;;;;-0.12;77.22;101383.14;108303;1287;22006;-80
2021/12/12 11:22:14;;;;;;;114.50;80.10;;;;;;;-0.04;77.32;101380.45;108447;1286;21986;-81
2021/12/12 11:25:21;;;;;;;96.70;71.40;;;;;;;0.03;76.80;101384.48;107794;1297;22057;-80
2021/12/12 11:28:27;;;;;;;129.50;90.50;;;;;;;0.03;76.52;101385.67;106936;1303;21997;-79
2021/12/12 11:31:55;;;;;;;;;;;;;;;;;;;;;
2021/12/12 11:34:58;;;;;;;92.90;66.40;;;;;;;0.05;76.11;101380.59;107370;1298;22214;-76
2021/12/12 11:38:23;;;;;;;100.50;72.80;;;;;;;0.01;75.83;101382.84;107423;1296;22643;-77
2021/12/12 11:41:15;;;;;;;111.60;76.20;;;;;;;-0.04;76.04;101388.06;107436;1298;22326;-75
2021/12/12 11:44:42;;;;;;;113.40;78.10;;;;;;;-0.01;76.06;101390.04;107464;1294;22116;-77
2021/12/12 11:47:58;;;;;;;136.70;98.10;;;;;;;0.05;76.36;101383.00;107530;1294;23599;-75
2021/12/12 11:51:03;;;;;;;98.20;67.60;;;;;;;0.14;76.61;101371.11;107607;1294;23736;-75
2021/12/12 11:53:46;;;;;;;108.70;69.30;;;;;;;0.20;76.40;101366.10;107184;1301;22966;-75
2021/12/12 11:57:14;;;;;;;116.00;77.80;;;;;;;0.19;76.10;101378.83;107067;1301;22010;-76
2021/12/12 12:00:20;;;;;;;141.20;87.90;;;;;;;0.19;76.13;101377.77;107045;1300;23624;-77
2021/12/12 12:03:51;;;;;;;115.20;79.70;;;;;;;0.18;75.65;101379.02;107540;1295;22176;-75
2021/12/12 12:07:36;;;;;;;118.20;81.40;;;;;;;0.15;75.49;101382.16;107597;1295;23383;-76
2021/12/12 12:10:54;;;;;;;94.90;67.40;;;;;;;0.12;75.44;101380.55;108000;1291;23053;-76
2021/12/12 12:13:27;;;;;;;129.30;90.70;;;;;;;0.03;75.01;101378.73;107649;1295;23140;-76
2021/12/12 12:16:34;;;;;;;121.60;82.90;;;;;;;-0.10;74.80;101379.88;107668;1292;22027;-76
2021/12/12 12:19:21;;;;;;;136.70;88.20;;;;;;;-0.19;75.07;101383.12;107637;1294;22063;-76
2021/12/12 12:22:31;;;;;;;142.00;101.90;;;;;;;-0.21;75.41;101382.69;107766;1289;24988;-76
2021/12/12 12:26:50;;;;;;;100.10;74.00;;;;;;;-0.25;75.37;101377.33;107969;1289;22005;-76
2021/12/12 12:28:57;;;;;;;94.80;70.10;;;;;;;-0.36;75.10;101376.45;107524;1296;22021;-76
2021/12/12 12:31:44;;;;;;;;;;;;;;;;;;;;;
2021/12/12 12:35:24;;;;;;;84.30;61.10;;;;;;;-0.38;75.31;101382.79;108179;1289;23148;-75
2021/12/12 12:38:26;;;;;;;95.10;69.70;;;;;;;-0.44;75.61;101382.55;108160;1289;22533;-76
2021/12/12 12:41:41;;;;;;;89.90;66.60;;;;;;;-0.47;75.67;101379.39;108144;1288;23790;-76
2021/12/12 12:45:08;;;;;;;97.80;66.70;;;;;;;-0.47;75.83;101378.36;108057;1289;22462;-76
2021/12/12 12:48:23;;;;;;;88.40;68.10;;;;;;;-0.49;75.91;101380.54;107749;1292;23038;-76
2021/12/12 12:51:44;;;;;;;127.80;100.70;;;;;;;-0.51;75.89;101382.54;107955;1292;21994;-76
2021/12/12 12:54:37;;;;;;;121.80;90.00;;;;;;;-0.52;76.09;101379.64;107824;1291;23879;-76
2021/12/12 12:57:26;;;;;;;91.20;65.00;;;;;;;-0.51;76.11;101371.47;107927;1288;23096;-76
2021/12/12 13:00:25;;;;;;;98.50;72.90;;;;;;;-0.53;75.97;101367.05;108030;1289;22108;-76
2021/12/12 13:03:52;;;;;;;104.90;74.10;;;;;;;-0.53;76.20;101368.58;108014;1289;23171;-76
2021/12/12 13:07:01;;;;;;;118.50;96.60;;;;;;;-0.49;76.35;101372.38;108628;1277;21989;-76
2021/12/12 13:09:56;;;;;;;98.40;73.90;;;;;;;-0.42;76.53;101371.05;108898;1276;22040;-76
2021/12/12 13:12:47;;;;;;;88.70;63.90;;;;;;;-0.42;76.29;101372.80;108777;1277;23688;-77
2021/12/12 13:15:49;;;;;;;98.00;70.20;;;;;;;-0.48;76.21;101371.30;108798;1276;21988;-77
2021/12/12 13:18:34;;;;;;;83.40;60.50;;;;;;;-0.46;76.52;101368.48;108867;1274;22509;-77
2021/12/12 13:21:40;;;;;;;95.20;69.50;;;;;;;-0.44;76.68;101373.90;108907;1276;23576;-76
2021/12/12 13:24:58;;;;;;;104.30;76.00;;;;;;;-0.37;76.88;101374.98;108824;1277;22030;-77